createdAt,value
2023-05-23T00:02:52.559Z,100094.74
2023-05-23T00:06:54.823Z,100091.67
2023-05-23T00:10:56.998Z,100089.75
2023-05-23T00:14:59.340Z,100085.60
2023-05-23T00:19:01.274Z,100082.63
2023-05-23T00:23:03.941Z,100081.63
2023-05-23T00:27:05.884Z,100081.75
2023-05-23T00:31:08.027Z,100078.13
2023-05-23T00:35:10.144Z,100074.88
2023-05-23T00:39:18.606Z,100073.74
2023-05-23T00:43:22.183Z,100069.02
2023-05-23T00:47:24.198Z,100069.05
2023-05-23T00:51:26.902Z,100071.33
2023-05-23T00:55:29.948Z,100075.73
2023-05-23T00:59:33.032Z,100074.31
2023-05-23T01:03:35.817Z,100070.95
2023-05-23T01:07:37.846Z,100074.23
2023-05-23T01:11:55.821Z,100077.55
2023-05-23T01:15:58.669Z,100080.45
2023-05-23T01:20:09.789Z,100075.64
2023-05-23T01:24:35.751Z,100076.90
2023-05-23T01:28:43.084Z,100076.63
2023-05-23T01:32:47.885Z,100074.23
2023-05-23T01:36:53.973Z,100072.95
2023-05-23T01:40:56.348Z,100070.39
2023-05-23T01:44:59.107Z,100068.59
2023-05-23T01:49:03.721Z,100065.48
2023-05-23T01:53:08.001Z,100066.83
2023-05-23T01:57:11.541Z,100066.85
2023-05-23T02:01:14.100Z,100067.18
2023-05-23T02:05:16.150Z,100065.47
2023-05-23T02:09:18.237Z,100065.54
2023-05-23T02:13:20.378Z,100062.94
2023-05-23T02:17:23.797Z,100056.48
2023-05-23T02:21:25.844Z,100051.33
2023-05-23T02:25:27.808Z,100048.74
2023-05-23T02:29:31.946Z,100042.46
2023-05-23T02:33:33.986Z,100038.83
2023-05-23T02:37:35.908Z,100035.83
2023-05-23T02:41:39.573Z,100038.44
2023-05-23T02:45:41.841Z,100044.36
2023-05-23T02:49:44.022Z,100041.10
2023-05-23T02:53:47.076Z,100037.86
2023-05-23T02:57:49.175Z,100035.59
2023-05-23T03:01:51.267Z,100031.84
2023-05-23T03:05:53.448Z,100029.15
2023-05-23T03:09:56.192Z,100027.38
2023-05-23T03:13:58.250Z,100025.06
2023-05-23T03:18:00.390Z,100018.06
2023-05-23T03:22:02.507Z,100016.82
2023-05-23T03:26:06.204Z,100018.82
2023-05-23T03:30:10.589Z,100022.00
2023-05-23T03:34:12.765Z,100019.92
2023-05-23T03:38:15.040Z,100022.11
2023-05-23T03:42:17.885Z,100021.88
2023-05-23T03:46:20.411Z,100018.64
2023-05-23T03:50:23.136Z,100023.33
2023-05-23T03:54:25.184Z,100022.20
2023-05-23T03:58:27.473Z,100018.35
2023-05-23T04:02:33.198Z,100016.78
2023-05-23T04:06:36.342Z,100017.40
2023-05-23T04:10:39.152Z,100015.00
2023-05-23T04:14:41.699Z,100011.64
2023-05-23T04:18:46.729Z,100014.13
2023-05-23T04:22:49.058Z,100012.96
2023-05-23T04:26:51.456Z,100021.33
2023-05-23T04:30:53.893Z,100018.00
2023-05-23T04:35:01.734Z,100015.23
2023-05-23T04:39:05.697Z,100015.11
2023-05-23T04:43:13.992Z,100009.17
2023-05-23T04:47:28.899Z,99999.64
2023-05-23T04:51:39.017Z,100002.48
2023-05-23T04:55:53.422Z,99996.02
2023-05-23T04:59:56.929Z,99996.20
2023-05-23T05:03:59.258Z,99995.38
2023-05-23T05:08:01.593Z,99994.63
2023-05-23T05:12:03.640Z,99995.82
2023-05-23T05:16:06.268Z,99990.84
2023-05-23T05:20:10.463Z,99989.32
2023-05-23T05:24:13.444Z,99990.21
2023-05-23T05:28:15.410Z,99988.23
2023-05-23T05:32:24.978Z,99983.46
2023-05-23T05:36:36.057Z,99976.73
2023-05-23T05:40:38.227Z,99976.92
2023-05-23T05:44:40.824Z,99977.83
2023-05-23T05:48:43.485Z,99975.38
2023-05-23T05:52:47.578Z,99975.20
2023-05-23T05:56:49.717Z,99975.88
2023-05-23T06:00:53.313Z,99976.36
2023-05-23T06:04:56.423Z,99973.62
2023-05-23T06:08:59.795Z,99973.08
2023-05-23T06:13:01.857Z,99968.71
2023-05-23T06:17:05.094Z,99967.02
2023-05-23T06:21:08.709Z,99962.03
2023-05-23T06:25:11.654Z,99956.95
2023-05-23T06:29:13.767Z,99955.09
2023-05-23T06:33:16.243Z,99952.82
2023-05-23T06:37:18.340Z,99951.14
2023-05-23T06:41:20.658Z,99948.11
2023-05-23T06:45:23.112Z,99943.05
2023-05-23T06:49:25.460Z,99939.35
2023-05-23T06:53:27.845Z,99943.27
2023-05-23T06:57:30.573Z,99939.56
2023-05-23T07:01:33.376Z,99941.10
2023-05-23T07:05:37.407Z,99935.20
2023-05-23T07:09:43.834Z,99930.83
2023-05-23T07:13:50.439Z,99928.98
2023-05-23T07:17:57.735Z,99927.29
2023-05-23T07:22:01.521Z,99923.81
2023-05-23T07:26:04.552Z,99917.68
2023-05-23T07:30:16.141Z,99917.69
2023-05-23T07:34:18.242Z,99916.54
2023-05-23T07:38:27.540Z,99907.29
2023-05-23T07:42:29.842Z,99909.73
2023-05-23T07:46:32.057Z,99906.15
2023-05-23T07:50:34.419Z,99904.64
2023-05-23T07:54:37.969Z,99904.92
2023-05-23T07:58:40.967Z,99907.71
2023-05-23T08:02:43.084Z,99902.48
2023-05-23T08:07:04.245Z,99898.33
2023-05-23T08:11:36.515Z,99896.08
2023-05-23T08:15:38.794Z,99889.16
2023-05-23T08:19:48.551Z,99892.23
2023-05-23T08:23:50.730Z,99889.73
2023-05-23T08:27:53.075Z,99890.46
2023-05-23T08:32:14.837Z,99889.08
2023-05-23T08:36:17.096Z,99889.68
2023-05-23T08:40:22.311Z,99889.10
2023-05-23T08:44:38.020Z,99886.48
2023-05-23T08:48:42.484Z,99889.30
2023-05-23T08:52:57.445Z,99881.71
2023-05-23T08:57:13.416Z,99877.67
2023-05-23T09:01:20.331Z,99871.80
2023-05-23T09:05:26.280Z,99864.62
2023-05-23T09:09:32.382Z,99866.20
2023-05-23T09:13:37.081Z,99864.11
2023-05-23T09:17:41.704Z,99864.56
2023-05-23T09:21:45.406Z,99868.52
2023-05-23T09:25:55.008Z,99859.55
2023-05-23T09:30:07.904Z,99853.92
2023-05-23T09:34:10.563Z,99862.53
2023-05-23T09:38:18.556Z,99858.08
2023-05-23T09:42:25.071Z,99854.25
2023-05-23T09:46:30.412Z,99852.65
2023-05-23T09:50:33.434Z,99843.59
2023-05-23T09:54:36.823Z,99846.52
2023-05-23T09:58:40.066Z,99844.65
2023-05-23T10:03:16.969Z,99842.38
2023-05-23T10:07:22.023Z,99843.52
2023-05-23T10:11:36.154Z,99847.53
2023-05-23T10:15:40.584Z,99849.03
2023-05-23T10:19:44.583Z,99843.05
2023-05-23T10:23:47.821Z,99834.18
2023-05-23T10:27:54.568Z,99828.58
2023-05-23T10:31:57.820Z,99829.58
2023-05-23T10:36:08.772Z,99832.58
2023-05-23T10:40:37.482Z,99826.59
2023-05-23T10:44:39.491Z,99826.45
2023-05-23T10:48:44.113Z,99823.55
2023-05-23T10:52:46.194Z,99821.55
2023-05-23T10:57:02.931Z,99818.99
2023-05-23T11:01:12.659Z,99810.11
2023-05-23T11:05:20.442Z,99816.14
2023-05-23T11:09:22.947Z,99819.78
2023-05-23T11:13:25.295Z,99806.64
2023-05-23T11:17:32.364Z,99806.11
2023-05-23T11:21:35.238Z,99795.63
2023-05-23T11:25:44.004Z,99793.82
2023-05-23T11:30:20.339Z,99785.44
2023-05-23T11:34:26.100Z,99790.43
2023-05-23T11:38:28.877Z,99786.64
2023-05-23T11:42:31.004Z,99783.04
2023-05-23T11:46:33.575Z,99781.36
2023-05-23T11:50:50.287Z,99774.67
2023-05-23T11:54:54.817Z,99774.80
2023-05-23T11:58:57.696Z,99776.21
2023-05-23T12:03:07.018Z,99770.02
2023-05-23T12:07:09.576Z,99762.64
2023-05-23T12:11:13.053Z,99761.83
2023-05-23T12:15:15.542Z,99764.15
2023-05-23T12:19:17.874Z,99756.98
2023-05-23T12:23:29.719Z,99750.45
2023-05-23T12:27:35.237Z,99748.62
2023-05-23T12:31:37.388Z,99744.83
2023-05-23T12:35:45.686Z,99741.92
2023-05-23T12:39:47.693Z,99746.98
2023-05-23T12:43:54.090Z,99740.17
2023-05-23T12:47:56.262Z,99739.05
2023-05-23T12:51:58.542Z,99731.73
2023-05-23T12:56:00.769Z,99733.05
2023-05-23T13:00:04.114Z,99728.87
2023-05-23T13:04:06.274Z,99726.85
2023-05-23T13:08:08.384Z,99719.70
2023-05-23T13:12:11.928Z,99714.55
2023-05-23T13:16:14.392Z,99708.23
2023-05-23T13:20:16.543Z,99705.54
2023-05-23T13:24:18.642Z,99701.96
2023-05-23T13:28:20.796Z,99702.98
2023-05-23T13:32:23.074Z,99701.42
2023-05-23T13:36:25.538Z,99693.88
2023-05-23T13:40:27.614Z,99689.33
2023-05-23T13:44:29.776Z,99688.74
2023-05-23T13:48:32.000Z,99689.73
2023-05-23T13:52:34.201Z,99683.92
2023-05-23T13:56:39.251Z,99677.64
2023-05-23T14:00:41.491Z,99674.00
2023-05-23T14:04:43.830Z,99668.89
2023-05-23T14:08:45.961Z,99669.86
2023-05-23T14:12:47.918Z,99671.22
2023-05-23T14:16:51.216Z,99666.70
2023-05-23T14:20:53.328Z,99670.46
2023-05-23T14:24:55.428Z,99673.40
2023-05-23T14:28:57.520Z,99673.27
2023-05-23T14:32:59.646Z,99669.59
2023-05-23T14:37:01.833Z,99669.95
2023-05-23T14:41:04.085Z,99665.33
2023-05-23T14:45:07.119Z,99656.66
2023-05-23T14:49:09.116Z,99657.13
2023-05-23T14:53:11.122Z,99655.25
2023-05-23T14:57:13.180Z,99652.34
2023-05-23T15:01:16.025Z,99651.40
2023-05-23T15:05:18.484Z,99653.54
2023-05-23T15:09:20.716Z,99654.32
2023-05-23T15:13:23.769Z,99653.04
2023-05-23T15:17:26.717Z,99653.73
2023-05-23T15:21:29.488Z,99651.13
2023-05-23T15:25:47.883Z,99653.60
2023-05-23T15:29:51.281Z,99651.98
2023-05-23T15:33:53.408Z,99655.06
2023-05-23T15:37:55.497Z,99648.42
2023-05-23T15:41:57.465Z,99651.52
2023-05-23T15:46:00.058Z,99646.95
2023-05-23T15:50:02.179Z,99644.23
2023-05-23T15:54:04.468Z,99642.48
2023-05-23T15:58:06.554Z,99641.61
2023-05-23T16:02:09.642Z,99633.86
2023-05-23T16:06:11.863Z,99637.17
2023-05-23T16:10:14.010Z,99633.73
2023-05-23T16:14:16.139Z,99631.29
2023-05-23T16:18:18.287Z,99626.67
2023-05-23T16:22:20.773Z,99625.50
2023-05-23T16:26:22.904Z,99624.92
2023-05-23T16:30:27.353Z,99631.90
2023-05-23T16:34:29.496Z,99633.79
2023-05-23T16:38:31.900Z,99630.09
2023-05-23T16:42:33.914Z,99629.54
2023-05-23T16:46:35.975Z,99629.49
2023-05-23T16:50:38.131Z,99629.38
2023-05-23T16:54:40.361Z,99625.92
2023-05-23T16:58:42.356Z,99627.35
2023-05-23T17:02:44.464Z,99626.07
2023-05-23T17:06:46.722Z,99627.45
2023-05-23T17:23:01.942Z,99632.67
2023-05-23T17:27:04.847Z,99631.60
2023-05-23T17:31:07.250Z,99629.35
2023-05-23T17:35:09.550Z,99629.23
2023-05-23T17:39:11.736Z,99629.47
2023-05-23T17:43:13.959Z,99627.58
2023-05-23T17:47:17.766Z,99632.92
2023-05-23T17:51:20.405Z,99637.63
2023-05-23T17:55:26.700Z,99635.64
2023-05-23T17:59:28.890Z,99635.69
2023-05-23T18:03:30.982Z,99639.46
2023-05-23T18:07:33.000Z,99639.70
2023-05-23T18:11:35.040Z,99642.36
2023-05-23T18:15:37.106Z,99639.77
2023-05-23T18:19:39.285Z,99647.01
2023-05-23T18:23:41.614Z,99652.27
2023-05-23T18:27:43.642Z,99652.50
2023-05-23T18:31:46.677Z,99657.36
2023-05-23T18:35:49.688Z,99659.16
2023-05-23T18:39:51.691Z,99666.89
2023-05-23T18:43:53.808Z,99670.55
2023-05-23T18:47:56.347Z,99676.16
2023-05-23T18:51:59.038Z,99679.91
2023-05-23T18:56:01.085Z,99680.54
2023-05-23T19:00:04.707Z,99685.41
2023-05-23T19:04:07.150Z,99683.33
2023-05-23T19:08:09.263Z,99684.18
2023-05-23T19:12:11.495Z,99685.28
2023-05-23T19:16:13.636Z,99683.96
2023-05-23T19:20:19.578Z,99681.04
2023-05-23T19:24:21.661Z,99684.65
2023-05-23T19:28:23.686Z,99692.55
2023-05-23T19:32:25.869Z,99693.61
2023-05-23T19:36:28.053Z,99693.36
2023-05-23T19:40:30.282Z,99691.45
2023-05-23T19:44:32.614Z,99692.33
2023-05-23T19:48:34.670Z,99691.74
2023-05-23T19:52:36.757Z,99697.05
2023-05-23T19:56:40.610Z,99698.67
2023-05-23T20:00:42.900Z,99699.27
2023-05-23T20:04:45.287Z,99700.00
2023-05-23T20:08:47.345Z,99705.21
2023-05-23T20:12:49.399Z,99698.40
2023-05-23T20:16:53.340Z,99698.22
2023-05-23T20:20:55.516Z,99696.34
2023-05-23T20:24:57.577Z,99698.01
2023-05-23T20:28:59.680Z,99704.30
2023-05-23T20:33:02.315Z,99704.88
2023-05-23T20:37:04.964Z,99710.19
2023-05-23T20:41:07.079Z,99708.71
2023-05-23T20:45:09.525Z,99710.96
2023-05-23T20:49:11.570Z,99711.79
2023-05-23T20:53:13.609Z,99713.83
2023-05-23T20:57:15.886Z,99714.14
2023-05-23T21:01:18.006Z,99716.44
2023-05-23T21:05:20.056Z,99718.65
2023-05-23T21:09:22.150Z,99716.61
2023-05-23T21:13:24.175Z,99716.65
2023-05-23T21:17:26.332Z,99717.98
2023-05-23T21:21:28.393Z,99717.16
2023-05-23T21:25:30.420Z,99712.04
2023-05-23T21:29:32.405Z,99713.79
2023-05-23T21:33:34.505Z,99712.05
2023-05-23T21:37:36.454Z,99710.45
2023-05-23T21:41:38.419Z,99711.79
2023-05-23T21:45:40.444Z,99712.47
2023-05-23T21:49:42.559Z,99713.58
2023-05-23T21:53:44.573Z,99719.96
2023-05-23T21:57:46.586Z,99721.81
2023-05-23T22:01:48.681Z,99719.40
2023-05-23T22:05:50.715Z,99724.40
2023-05-23T22:09:54.052Z,99721.23
2023-05-23T22:13:56.050Z,99723.46
2023-05-23T22:18:01.143Z,99719.35
2023-05-23T22:22:03.339Z,99719.14
2023-05-23T22:26:05.402Z,99721.12
2023-05-23T22:30:08.010Z,99714.88
2023-05-23T22:34:10.138Z,99709.45
2023-05-23T22:38:12.178Z,99705.80
2023-05-23T22:42:14.201Z,99700.98
2023-05-23T22:46:16.181Z,99697.42
2023-05-23T22:50:18.160Z,99693.05
2023-05-23T22:54:20.214Z,99692.56
2023-05-23T22:58:22.321Z,99694.88
2023-05-23T23:02:24.349Z,99695.96
2023-05-23T23:06:26.426Z,99697.80
2023-05-23T23:10:28.472Z,99696.79
2023-05-23T23:14:30.468Z,99693.79
2023-05-23T23:18:32.566Z,99694.67
2023-05-23T23:22:35.874Z,99694.14
2023-05-23T23:26:37.877Z,99690.31
2023-05-23T23:30:40.062Z,99685.67
2023-05-23T23:34:42.069Z,99686.21
2023-05-23T23:38:44.069Z,99682.34
2023-05-23T23:42:46.063Z,99681.81
2023-05-23T23:46:48.184Z,99674.54
2023-05-23T23:50:50.342Z,99672.38
2023-05-23T23:54:52.320Z,99672.23
2023-05-23T23:58:54.882Z,99671.42
